sensor_id;sensor_type;location;lat;lon;timestamp;pressure;altitude;pressure_sealevel;temperature;humidity
12775;BME280;6451;42.630;23.382;2023-05-29T00:01:00;94157.22;;;18.72;100.00
12775;BME280;6451;42.630;23.382;2023-05-29T00:03:27;94166.94;;;18.87;100.00
12775;BME280;6451;42.630;23.382;2023-05-29T00:05:58;94166.19;;;18.83;100.00
12775;BME280;6451;42.630;23.382;2023-05-29T00:08:26;94141.22;;;18.52;100.00
12775;BME280;6451;42.630;23.382;2023-05-29T00:10:53;94138.16;;;18.32;100.00
12775;BME280;6451;42.630;23.382;2023-05-29T00:13:22;94169.94;;;18.37;100.00
12775;BME280;6451;42.630;23.382;2023-05-29T00:15:48;94158.16;;;18.37;100.00
12775;BME280;6451;42.630;23.382;2023-05-29T00:18:15;94172.19;;;18.64;100.00
12775;BME280;6451;42.630;23.382;2023-05-29T00:20:42;94149.88;;;18.47;100.00
12775;BME280;6451;42.630;23.382;2023-05-29T00:23:10;94173.00;;;18.53;100.00
12775;BME280;6451;42.630;23.382;2023-05-29T00:25:37;94146.41;;;18.32;100.00
12775;BME280;6451;42.630;23.382;2023-05-29T00:28:06;94170.59;;;18.66;100.00
12775;BME280;6451;42.630;23.382;2023-05-29T00:30:35;94170.47;;;18.87;100.00
12775;BME280;6451;42.630;23.382;2023-05-29T00:33:02;94154.00;;;18.84;100.00
12775;BME280;6451;42.630;23.382;2023-05-29T00:35:29;94168.91;;;18.86;100.00
12775;BME280;6451;42.630;23.382;2023-05-29T00:37:57;94152.13;;;18.70;100.00
12775;BME280;6451;42.630;23.382;2023-05-29T00:40:24;94173.97;;;18.92;100.00
12775;BME280;6451;42.630;23.382;2023-05-29T00:42:51;94177.22;;;18.79;100.00
12775;BME280;6451;42.630;23.382;2023-05-29T00:45:18;94162.69;;;18.79;100.00
12775;BME280;6451;42.630;23.382;2023-05-29T00:47:48;94160.22;;;18.92;100.00
12775;BME280;6451;42.630;23.382;2023-05-29T00:50:15;94156.38;;;18.78;100.00
12775;BME280;6451;42.630;23.382;2023-05-29T00:52:43;94122.84;;;18.39;100.00
12775;BME280;6451;42.630;23.382;2023-05-29T00:55:11;94152.47;;;18.79;100.00
12775;BME280;6451;42.630;23.382;2023-05-29T00:57:39;94155.13;;;18.90;100.00
12775;BME280;6451;42.630;23.382;2023-05-29T01:00:07;94134.88;;;18.66;100.00
12775;BME280;6451;42.630;23.382;2023-05-29T01:02:39;94147.75;;;18.80;100.00
12775;BME280;6451;42.630;23.382;2023-05-29T01:05:10;94143.13;;;18.66;100.00
12775;BME280;6451;42.630;23.382;2023-05-29T01:07:37;94153.72;;;18.68;100.00
12775;BME280;6451;42.630;23.382;2023-05-29T01:10:06;94151.41;;;18.52;100.00
12775;BME280;6451;42.630;23.382;2023-05-29T01:12:43;94129.50;;;18.41;100.00
12775;BME280;6451;42.630;23.382;2023-05-29T01:15:26;94163.69;;;18.33;100.00
12775;BME280;6451;42.630;23.382;2023-05-29T01:18:07;94131.66;;;17.98;100.00
12775;BME280;6451;42.630;23.382;2023-05-29T01:20:42;94154.34;;;18.16;100.00
12775;BME280;6451;42.630;23.382;2023-05-29T01:23:37;94163.81;;;17.94;100.00
12775;BME280;6451;42.630;23.382;2023-05-29T01:26:11;94164.53;;;18.16;100.00
12775;BME280;6451;42.630;23.382;2023-05-29T01:28:47;94150.47;;;17.99;100.00
12775;BME280;6451;42.630;23.382;2023-05-29T01:31:19;94171.22;;;18.15;100.00
12775;BME280;6451;42.630;23.382;2023-05-29T01:33:51;94157.97;;;17.92;100.00
12775;BME280;6451;42.630;23.382;2023-05-29T01:36:18;94148.16;;;17.94;100.00
12775;BME280;6451;42.630;23.382;2023-05-29T01:38:45;94159.09;;;18.01;100.00
12775;BME280;6451;42.630;23.382;2023-05-29T01:41:14;94152.00;;;18.15;100.00
12775;BME280;6451;42.630;23.382;2023-05-29T01:43:42;94153.97;;;18.11;100.00
12775;BME280;6451;42.630;23.382;2023-05-29T01:46:11;94152.69;;;18.37;100.00
12775;BME280;6451;42.630;23.382;2023-05-29T01:48:39;94129.19;;;18.28;100.00
12775;BME280;6451;42.630;23.382;2023-05-29T01:51:07;94154.63;;;18.40;100.00
12775;BME280;6451;42.630;23.382;2023-05-29T01:53:34;94149.53;;;18.42;100.00
12775;BME280;6451;42.630;23.382;2023-05-29T01:56:01;94157.31;;;18.50;100.00
12775;BME280;6451;42.630;23.382;2023-05-29T01:58:29;94149.50;;;18.45;100.00
12775;BME280;6451;42.630;23.382;2023-05-29T02:00:57;94141.63;;;18.47;100.00
12775;BME280;6451;42.630;23.382;2023-05-29T02:03:26;94116.63;;;18.27;100.00
12775;BME280;6451;42.630;23.382;2023-05-29T02:05:54;94143.13;;;18.59;100.00
12775;BME280;6451;42.630;23.382;2023-05-29T02:08:21;94144.69;;;18.67;100.00
12775;BME280;6451;42.630;23.382;2023-05-29T02:10:48;94137.63;;;18.66;100.00
12775;BME280;6451;42.630;23.382;2023-05-29T02:13:17;94139.22;;;18.56;100.00
12775;BME280;6451;42.630;23.382;2023-05-29T02:15:44;94142.34;;;18.66;100.00
12775;BME280;6451;42.630;23.382;2023-05-29T02:18:13;94143.88;;;18.63;100.00
12775;BME280;6451;42.630;23.382;2023-05-29T02:20:42;94131.00;;;18.56;100.00
12775;BME280;6451;42.630;23.382;2023-05-29T02:23:10;94146.88;;;18.20;100.00
12775;BME280;6451;42.630;23.382;2023-05-29T02:25:37;94139.31;;;18.39;100.00
12775;BME280;6451;42.630;23.382;2023-05-29T02:28:04;94144.41;;;18.44;100.00
12775;BME280;6451;42.630;23.382;2023-05-29T02:30:31;94147.41;;;18.71;100.00
12775;BME280;6451;42.630;23.382;2023-05-29T02:32:58;94153.75;;;18.57;100.00
12775;BME280;6451;42.630;23.382;2023-05-29T02:35:25;94116.16;;;18.40;100.00
12775;BME280;6451;42.630;23.382;2023-05-29T02:37:53;94130.94;;;18.64;100.00
12775;BME280;6451;42.630;23.382;2023-05-29T02:40:20;94143.03;;;18.80;100.00
12775;BME280;6451;42.630;23.382;2023-05-29T02:42:47;94100.75;;;18.56;100.00
12775;BME280;6451;42.630;23.382;2023-05-29T02:45:14;94152.06;;;18.81;100.00
12775;BME280;6451;42.630;23.382;2023-05-29T02:47:41;94130.97;;;18.60;100.00
12775;BME280;6451;42.630;23.382;2023-05-29T02:50:09;94152.13;;;18.70;100.00
12775;BME280;6451;42.630;23.382;2023-05-29T02:52:36;94156.00;;;18.80;100.00
12775;BME280;6451;42.630;23.382;2023-05-29T02:55:05;94144.69;;;18.67;100.00
12775;BME280;6451;42.630;23.382;2023-05-29T02:57:32;94164.25;;;18.80;100.00
12775;BME280;6451;42.630;23.382;2023-05-29T02:59:59;94156.78;;;18.77;100.00
12775;BME280;6451;42.630;23.382;2023-05-29T03:02:26;94148.78;;;18.34;100.00
12775;BME280;6451;42.630;23.382;2023-05-29T03:04:53;94156.13;;;18.48;100.00
12775;BME280;6451;42.630;23.382;2023-05-29T03:07:20;94147.06;;;18.58;100.00
12775;BME280;6451;42.630;23.382;2023-05-29T03:09:47;94167.00;;;18.76;100.00
12775;BME280;6451;42.630;23.382;2023-05-29T03:12:15;94161.97;;;18.60;100.00
12775;BME280;6451;42.630;23.382;2023-05-29T03:14:44;94147.50;;;18.49;100.00
12775;BME280;6451;42.630;23.382;2023-05-29T03:17:11;94125.88;;;18.55;100.00
12775;BME280;6451;42.630;23.382;2023-05-29T03:19:38;94157.97;;;18.79;100.00
12775;BME280;6451;42.630;23.382;2023-05-29T03:22:05;94114.19;;;18.40;100.00
12775;BME280;6451;42.630;23.382;2023-05-29T03:24:32;94158.72;;;18.83;100.00
12775;BME280;6451;42.630;23.382;2023-05-29T03:27:02;94164.63;;;18.82;100.00
12775;BME280;6451;42.630;23.382;2023-05-29T03:29:32;94154.72;;;18.95;100.00
12775;BME280;6451;42.630;23.382;2023-05-29T03:31:59;94154.56;;;19.13;100.00
12775;BME280;6451;42.630;23.382;2023-05-29T03:34:25;94154.94;;;19.19;100.00
12775;BME280;6451;42.630;23.382;2023-05-29T03:36:53;94161.78;;;18.96;100.00
12775;BME280;6451;42.630;23.382;2023-05-29T03:39:20;94085.06;;;18.53;100.00
12775;BME280;6451;42.630;23.382;2023-05-29T03:41:47;94188.34;;;19.17;100.00
12775;BME280;6451;42.630;23.382;2023-05-29T03:44:14;94186.75;;;19.16;100.00
12775;BME280;6451;42.630;23.382;2023-05-29T03:46:42;94164.66;;;18.75;100.00
12775;BME280;6451;42.630;23.382;2023-05-29T03:49:09;94190.69;;;19.19;100.00
12775;BME280;6451;42.630;23.382;2023-05-29T03:51:36;94190.66;;;19.22;100.00
12775;BME280;6451;42.630;23.382;2023-05-29T03:54:03;94192.34;;;19.57;100.00
12775;BME280;6451;42.630;23.382;2023-05-29T03:56:30;94171.22;;;19.43;100.00
12775;BME280;6451;42.630;23.382;2023-05-29T03:58:57;94191.84;;;19.69;100.00
12775;BME280;6451;42.630;23.382;2023-05-29T04:01:24;94182.84;;;20.03;100.00
12775;BME280;6451;42.630;23.382;2023-05-29T04:03:53;94180.53;;;19.98;100.00
12775;BME280;6451;42.630;23.382;2023-05-29T04:06:20;94198.59;;;20.37;100.00
12775;BME280;6451;42.630;23.382;2023-05-29T04:08:47;94198.44;;;20.51;100.00
12775;BME280;6451;42.630;23.382;2023-05-29T04:11:14;94179.22;;;20.47;100.00
12775;BME280;6451;42.630;23.382;2023-05-29T04:13:42;94208.59;;;20.88;100.00
12775;BME280;6451;42.630;23.382;2023-05-29T04:16:09;94184.06;;;20.67;100.00
12775;BME280;6451;42.630;23.382;2023-05-29T04:18:35;94189.03;;;21.06;100.00
12775;BME280;6451;42.630;23.382;2023-05-29T04:21:04;94199.78;;;21.24;100.00
12775;BME280;6451;42.630;23.382;2023-05-29T04:23:31;94208.03;;;21.00;100.00
12775;BME280;6451;42.630;23.382;2023-05-29T04:25:58;94213.94;;;21.02;100.00
12775;BME280;6451;42.630;23.382;2023-05-29T04:28:27;94203.25;;;21.04;100.00
12775;BME280;6451;42.630;23.382;2023-05-29T04:30:54;94201.19;;;21.08;100.00
12775;BME280;6451;42.630;23.382;2023-05-29T04:33:21;94202.41;;;20.80;100.00
12775;BME280;6451;42.630;23.382;2023-05-29T04:35:49;94214.16;;;20.85;100.00
12775;BME280;6451;42.630;23.382;2023-05-29T04:38:18;94172.78;;;20.58;100.00
12775;BME280;6451;42.630;23.382;2023-05-29T04:40:50;94207.31;;;20.96;100.00
12775;BME280;6451;42.630;23.382;2023-05-29T04:43:17;94214.03;;;20.95;100.00
12775;BME280;6451;42.630;23.382;2023-05-29T04:45:44;94208.78;;;21.01;100.00
12775;BME280;6451;42.630;23.382;2023-05-29T04:48:11;94220.03;;;21.68;100.00
12775;BME280;6451;42.630;23.382;2023-05-29T04:50:38;94216.91;;;21.89;100.00
12775;BME280;6451;42.630;23.382;2023-05-29T04:53:05;94213.09;;;22.46;100.00
12775;BME280;6451;42.630;23.382;2023-05-29T04:55:34;94210.88;;;22.37;100.00
12775;BME280;6451;42.630;23.382;2023-05-29T04:58:00;94221.88;;;22.61;100.00
12775;BME280;6451;42.630;23.382;2023-05-29T05:00:28;94220.53;;;22.29;100.00
12775;BME280;6451;42.630;23.382;2023-05-29T05:02:54;94220.53;;;21.86;100.00
12775;BME280;6451;42.630;23.382;2023-05-29T05:05:21;94204.28;;;21.88;100.00
12775;BME280;6451;42.630;23.382;2023-05-29T05:07:48;94218.22;;;21.81;100.00
12775;BME280;6451;42.630;23.382;2023-05-29T05:10:15;94243.69;;;21.69;100.00
12775;BME280;6451;42.630;23.382;2023-05-29T05:12:44;94241.78;;;21.65;100.00
12775;BME280;6451;42.630;23.382;2023-05-29T05:15:12;94189.22;;;21.69;100.00
12775;BME280;6451;42.630;23.382;2023-05-29T05:17:39;94250.81;;;22.16;100.00
12775;BME280;6451;42.630;23.382;2023-05-29T05:20:10;94253.47;;;21.97;100.00
12775;BME280;6451;42.630;23.382;2023-05-29T05:22:37;94242.97;;;21.88;100.00
12775;BME280;6451;42.630;23.382;2023-05-29T05:25:05;94245.13;;;22.00;100.00
12775;BME280;6451;42.630;23.382;2023-05-29T05:27:33;94241.00;;;22.12;100.00
12775;BME280;6451;42.630;23.382;2023-05-29T05:30:02;94237.63;;;21.77;100.00
12775;BME280;6451;42.630;23.382;2023-05-29T05:32:29;94200.38;;;21.62;100.00
12775;BME280;6451;42.630;23.382;2023-05-29T05:34:57;94251.38;;;22.67;100.00
12775;BME280;6451;42.630;23.382;2023-05-29T05:37:23;94249.50;;;22.21;100.00
12775;BME280;6451;42.630;23.382;2023-05-29T05:39:52;94247.00;;;21.83;100.00
12775;BME280;6451;42.630;23.382;2023-05-29T05:42:19;94242.25;;;21.84;100.00
12775;BME280;6451;42.630;23.382;2023-05-29T05:44:46;94247.81;;;22.27;100.00
12775;BME280;6451;42.630;23.382;2023-05-29T05:47:14;94237.25;;;22.82;100.00
12775;BME280;6451;42.630;23.382;2023-05-29T05:49:41;94249.56;;;23.00;100.00
12775;BME280;6451;42.630;23.382;2023-05-29T05:52:08;94185.47;;;23.02;100.00
12775;BME280;6451;42.630;23.382;2023-05-29T05:54:35;94246.28;;;22.66;100.00
12775;BME280;6451;42.630;23.382;2023-05-29T05:57:02;94246.06;;;22.37;100.00
12775;BME280;6451;42.630;23.382;2023-05-29T05:59:29;94225.00;;;22.43;100.00
12775;BME280;6451;42.630;23.382;2023-05-29T06:01:56;94255.34;;;22.66;100.00
12775;BME280;6451;42.630;23.382;2023-05-29T06:04:25;94224.06;;;22.10;100.00
12775;BME280;6451;42.630;23.382;2023-05-29T06:06:51;94245.00;;;21.60;100.00
12775;BME280;6451;42.630;23.382;2023-05-29T06:09:18;94196.41;;;21.13;100.00
12775;BME280;6451;42.630;23.382;2023-05-29T06:11:45;94248.72;;;21.97;100.00
12775;BME280;6451;42.630;23.382;2023-05-29T06:14:13;94252.41;;;22.14;100.00
12775;BME280;6451;42.630;23.382;2023-05-29T06:16:40;94256.03;;;22.31;100.00
12775;BME280;6451;42.630;23.382;2023-05-29T06:19:07;94259.88;;;22.37;100.00
12775;BME280;6451;42.630;23.382;2023-05-29T06:21:36;94261.03;;;21.92;100.00
12775;BME280;6451;42.630;23.382;2023-05-29T06:24:04;94263.75;;;22.19;100.00
12775;BME280;6451;42.630;23.382;2023-05-29T06:26:31;94262.78;;;22.30;100.00
12775;BME280;6451;42.630;23.382;2023-05-29T06:28:58;94250.88;;;22.33;100.00
12775;BME280;6451;42.630;23.382;2023-05-29T06:31:25;94264.72;;;22.72;100.00
12775;BME280;6451;42.630;23.382;2023-05-29T06:33:52;94257.69;;;22.68;100.00
12775;BME280;6451;42.630;23.382;2023-05-29T06:36:20;94216.19;;;21.61;100.00
12775;BME280;6451;42.630;23.382;2023-05-29T06:38:48;94264.34;;;22.31;100.00
12775;BME280;6451;42.630;23.382;2023-05-29T06:41:16;94256.28;;;22.80;100.00
12775;BME280;6451;42.630;23.382;2023-05-29T06:43:42;94264.88;;;22.22;100.00
12775;BME280;6451;42.630;23.382;2023-05-29T06:46:10;94263.22;;;22.68;100.00
12775;BME280;6451;42.630;23.382;2023-05-29T06:48:37;94255.22;;;22.34;100.00
12775;BME280;6451;42.630;23.382;2023-05-29T06:51:04;94262.69;;;22.96;100.00
12775;BME280;6451;42.630;23.382;2023-05-29T06:53:34;94255.00;;;22.64;100.00
12775;BME280;6451;42.630;23.382;2023-05-29T06:56:03;94257.28;;;23.62;100.00
12775;BME280;6451;42.630;23.382;2023-05-29T06:58:31;94241.69;;;23.84;96.96
12775;BME280;6451;42.630;23.382;2023-05-29T07:00:58;94243.53;;;23.91;96.93
12775;BME280;6451;42.630;23.382;2023-05-29T07:03:26;94257.03;;;24.05;95.64
12775;BME280;6451;42.630;23.382;2023-05-29T07:05:53;94254.75;;;23.51;97.87
12775;BME280;6451;42.630;23.382;2023-05-29T07:08:20;94260.81;;;23.10;99.69
12775;BME280;6451;42.630;23.382;2023-05-29T07:10:47;94264.09;;;22.65;100.00
12775;BME280;6451;42.630;23.382;2023-05-29T07:13:17;94258.88;;;23.63;96.17
12775;BME280;6451;42.630;23.382;2023-05-29T07:15:44;94261.97;;;23.97;93.75
12775;BME280;6451;42.630;23.382;2023-05-29T07:18:11;94255.13;;;24.02;92.72
12775;BME280;6451;42.630;23.382;2023-05-29T07:20:38;94256.75;;;24.61;90.04
12775;BME280;6451;42.630;23.382;2023-05-29T07:23:05;94255.50;;;24.78;88.03
12775;BME280;6451;42.630;23.382;2023-05-29T07:25:32;94252.34;;;23.69;93.69
12775;BME280;6451;42.630;23.382;2023-05-29T07:27:58;94253.78;;;23.77;92.38
12775;BME280;6451;42.630;23.382;2023-05-29T07:30:27;94258.25;;;23.88;92.84
12775;BME280;6451;42.630;23.382;2023-05-29T07:32:54;94249.09;;;23.38;95.59
12775;BME280;6451;42.630;23.382;2023-05-29T07:35:21;94261.44;;;23.17;97.82
12775;BME280;6451;42.630;23.382;2023-05-29T07:37:48;94250.00;;;23.84;93.83
12775;BME280;6451;42.630;23.382;2023-05-29T07:40:16;94250.34;;;24.19;92.08
12775;BME280;6451;42.630;23.382;2023-05-29T07:42:43;94254.06;;;24.86;88.36
12775;BME280;6451;42.630;23.382;2023-05-29T07:45:10;94240.31;;;24.95;87.48
12775;BME280;6451;42.630;23.382;2023-05-29T07:47:39;94251.19;;;25.57;83.76
12775;BME280;6451;42.630;23.382;2023-05-29T07:50:08;94253.06;;;25.47;82.71
12775;BME280;6451;42.630;23.382;2023-05-29T07:52:36;94255.19;;;24.60;87.08
12775;BME280;6451;42.630;23.382;2023-05-29T07:55:03;94257.22;;;23.65;91.02
12775;BME280;6451;42.630;23.382;2023-05-29T07:57:30;94250.16;;;24.42;89.79
12775;BME280;6451;42.630;23.382;2023-05-29T07:59:57;94255.13;;;24.63;88.88
12775;BME280;6451;42.630;23.382;2023-05-29T08:02:24;94257.25;;;24.43;87.72
12775;BME280;6451;42.630;23.382;2023-05-29T08:04:53;94257.72;;;25.25;85.26
12775;BME280;6451;42.630;23.382;2023-05-29T08:07:20;94247.09;;;24.94;85.83
12775;BME280;6451;42.630;23.382;2023-05-29T08:09:47;94257.44;;;24.94;85.68
12775;BME280;6451;42.630;23.382;2023-05-29T08:12:14;94243.06;;;25.37;82.62
12775;BME280;6451;42.630;23.382;2023-05-29T08:14:40;94264.81;;;25.13;81.19
12775;BME280;6451;42.630;23.382;2023-05-29T08:17:07;94262.84;;;24.85;82.70
12775;BME280;6451;42.630;23.382;2023-05-29T08:19:34;94251.94;;;24.49;84.75
12775;BME280;6451;42.630;23.382;2023-05-29T08:22:03;94263.47;;;24.76;85.54
12775;BME280;6451;42.630;23.382;2023-05-29T08:24:31;94259.22;;;25.01;84.29
12775;BME280;6451;42.630;23.382;2023-05-29T08:26:58;94258.09;;;24.98;84.40
12775;BME280;6451;42.630;23.382;2023-05-29T08:29:25;94273.00;;;24.62;82.44
12775;BME280;6451;42.630;23.382;2023-05-29T08:31:52;94263.91;;;24.75;82.23
12775;BME280;6451;42.630;23.382;2023-05-29T08:34:19;94257.81;;;24.80;86.18
12775;BME280;6451;42.630;23.382;2023-05-29T08:36:47;94262.38;;;25.28;82.49
12775;BME280;6451;42.630;23.382;2023-05-29T08:39:15;94244.19;;;24.85;81.83
12775;BME280;6451;42.630;23.382;2023-05-29T08:41:49;94250.72;;;25.08;81.80
12775;BME280;6451;42.630;23.382;2023-05-29T08:44:21;94256.88;;;26.26;76.33
12775;BME280;6451;42.630;23.382;2023-05-29T08:46:51;94247.47;;;25.98;78.02
12775;BME280;6451;42.630;23.382;2023-05-29T08:49:21;94256.19;;;25.62;78.14
12775;BME280;6451;42.630;23.382;2023-05-29T08:51:51;94248.94;;;25.27;83.11
12775;BME280;6451;42.630;23.382;2023-05-29T08:54:23;94238.06;;;25.45;80.96
12775;BME280;6451;42.630;23.382;2023-05-29T08:56:50;94252.72;;;25.84;76.96
12775;BME280;6451;42.630;23.382;2023-05-29T08:59:18;94243.06;;;25.63;77.18
12775;BME280;6451;42.630;23.382;2023-05-29T09:01:45;94227.41;;;25.43;79.35
12775;BME280;6451;42.630;23.382;2023-05-29T09:04:13;94229.06;;;25.54;75.98
12775;BME280;6451;42.630;23.382;2023-05-29T09:06:40;94230.16;;;25.94;72.35
12775;BME280;6451;42.630;23.382;2023-05-29T09:09:09;94252.72;;;25.20;75.11
12775;BME280;6451;42.630;23.382;2023-05-29T09:11:38;94225.16;;;24.71;77.46
12775;BME280;6451;42.630;23.382;2023-05-29T09:14:04;94237.56;;;24.54;78.90
12775;BME280;6451;42.630;23.382;2023-05-29T09:16:31;94233.63;;;24.80;78.09
12775;BME280;6451;42.630;23.382;2023-05-29T09:19:04;94244.84;;;24.77;77.81
12775;BME280;6451;42.630;23.382;2023-05-29T09:21:32;94227.97;;;24.26;77.82
12775;BME280;6451;42.630;23.382;2023-05-29T09:24:03;94221.16;;;24.72;75.95
12775;BME280;6451;42.630;23.382;2023-05-29T09:26:31;94215.81;;;25.07;75.28
12775;BME280;6451;42.630;23.382;2023-05-29T09:28:59;94213.41;;;25.72;75.79
12775;BME280;6451;42.630;23.382;2023-05-29T09:31:26;94199.28;;;25.41;71.61
12775;BME280;6451;42.630;23.382;2023-05-29T09:33:54;94205.41;;;25.23;71.16
12775;BME280;6451;42.630;23.382;2023-05-29T09:36:21;94208.72;;;25.82;69.14
12775;BME280;6451;42.630;23.382;2023-05-29T09:38:48;94212.81;;;25.65;69.78
12775;BME280;6451;42.630;23.382;2023-05-29T09:41:26;94212.94;;;25.61;70.17
12775;BME280;6451;42.630;23.382;2023-05-29T09:43:53;94204.09;;;26.36;67.68
12775;BME280;6451;42.630;23.382;2023-05-29T09:46:22;94200.31;;;26.08;71.15
12775;BME280;6451;42.630;23.382;2023-05-29T09:48:49;94204.72;;;26.18;72.00
12775;BME280;6451;42.630;23.382;2023-05-29T09:51:20;94195.41;;;26.12;69.07
12775;BME280;6451;42.630;23.382;2023-05-29T09:53:48;94185.84;;;26.47;68.27
12775;BME280;6451;42.630;23.382;2023-05-29T09:56:16;94196.63;;;26.45;66.73
12775;BME280;6451;42.630;23.382;2023-05-29T09:58:44;94191.88;;;26.99;65.42
12775;BME280;6451;42.630;23.382;2023-05-29T10:01:12;94187.72;;;27.25;67.01
12775;BME280;6451;42.630;23.382;2023-05-29T10:03:42;94195.38;;;27.52;64.43
12775;BME280;6451;42.630;23.382;2023-05-29T10:06:10;94195.72;;;27.54;62.61
12775;BME280;6451;42.630;23.382;2023-05-29T10:08:45;94189.66;;;27.47;62.48
12775;BME280;6451;42.630;23.382;2023-05-29T10:11:14;94190.63;;;27.22;63.61
12775;BME280;6451;42.630;23.382;2023-05-29T10:13:47;94195.31;;;27.34;63.57
12775;BME280;6451;42.630;23.382;2023-05-29T10:16:15;94195.41;;;28.29;63.29
12775;BME280;6451;42.630;23.382;2023-05-29T10:18:53;94186.09;;;28.14;61.34
12775;BME280;6451;42.630;23.382;2023-05-29T10:21:21;94195.28;;;28.51;59.27
12775;BME280;6451;42.630;23.382;2023-05-29T10:23:50;94171.28;;;27.18;63.26
12775;BME280;6451;42.630;23.382;2023-05-29T10:26:19;94162.59;;;26.63;62.25
12775;BME280;6451;42.630;23.382;2023-05-29T10:28:54;94180.94;;;27.35;63.32
12775;BME280;6451;42.630;23.382;2023-05-29T10:31:27;94179.34;;;27.65;61.55
12775;BME280;6451;42.630;23.382;2023-05-29T10:34:07;94180.88;;;27.17;58.66
12775;BME280;6451;42.630;23.382;2023-05-29T10:36:40;94184.38;;;27.08;59.04
12775;BME280;6451;42.630;23.382;2023-05-29T10:39:09;94181.47;;;26.90;59.50
12775;BME280;6451;42.630;23.382;2023-05-29T10:41:37;94188.31;;;26.98;59.80
12775;BME280;6451;42.630;23.382;2023-05-29T10:44:39;94183.34;;;26.93;61.25
12775;BME280;6451;42.630;23.382;2023-05-29T10:47:09;94192.38;;;26.19;65.90
12775;BME280;6451;42.630;23.382;2023-05-29T10:49:39;94183.00;;;26.25;69.47
12775;BME280;6451;42.630;23.382;2023-05-29T10:52:18;94130.78;;;25.60;74.15
12775;BME280;6451;42.630;23.382;2023-05-29T10:54:53;94194.06;;;24.76;84.37
12775;BME280;6451;42.630;23.382;2023-05-29T10:57:22;94169.97;;;24.60;85.52
12775;BME280;6451;42.630;23.382;2023-05-29T10:59:59;94168.81;;;24.45;87.25
12775;BME280;6451;42.630;23.382;2023-05-29T11:02:36;94111.75;;;24.31;86.28
12775;BME280;6451;42.630;23.382;2023-05-29T11:05:21;94163.94;;;25.04;85.82
12775;BME280;6451;42.630;23.382;2023-05-29T11:07:52;94161.84;;;25.20;90.41
12775;BME280;6451;42.630;23.382;2023-05-29T11:10:43;94155.69;;;25.64;92.24
12775;BME280;6451;42.630;23.382;2023-05-29T11:13:22;94156.78;;;26.14;84.54
12775;BME280;6451;42.630;23.382;2023-05-29T11:16:04;94155.06;;;26.73;85.82
12775;BME280;6451;42.630;23.382;2023-05-29T11:18:39;94154.28;;;26.72;89.16
12775;BME280;6451;42.630;23.382;2023-05-29T11:21:15;94142.38;;;26.28;93.58
12775;BME280;6451;42.630;23.382;2023-05-29T11:23:50;94135.84;;;26.00;90.18
12775;BME280;6451;42.630;23.382;2023-05-29T11:26:18;94143.69;;;26.58;86.54
12775;BME280;6451;42.630;23.382;2023-05-29T11:28:46;94146.78;;;26.60;81.96
12775;BME280;6451;42.630;23.382;2023-05-29T11:31:13;94135.78;;;26.78;80.57
12775;BME280;6451;42.630;23.382;2023-05-29T11:33:47;94144.25;;;27.37;82.01
12775;BME280;6451;42.630;23.382;2023-05-29T11:36:17;94114.59;;;27.12;82.58
12775;BME280;6451;42.630;23.382;2023-05-29T11:38:45;94131.25;;;27.34;75.66
12775;BME280;6451;42.630;23.382;2023-05-29T11:41:12;94108.69;;;27.59;74.14
12775;BME280;6451;42.630;23.382;2023-05-29T11:43:39;94139.75;;;27.98;71.92
12775;BME280;6451;42.630;23.382;2023-05-29T11:46:16;94132.00;;;27.93;69.34
12775;BME280;6451;42.630;23.382;2023-05-29T11:48:47;94123.19;;;28.04;71.81
12775;BME280;6451;42.630;23.382;2023-05-29T11:51:14;94131.41;;;28.16;74.21
12775;BME280;6451;42.630;23.382;2023-05-29T11:53:43;94141.19;;;26.82;79.60
12775;BME280;6451;42.630;23.382;2023-05-29T11:56:10;94151.69;;;25.65;85.89
12775;BME280;6451;42.630;23.382;2023-05-29T11:58:40;94155.03;;;24.71;92.11
12775;BME280;6451;42.630;23.382;2023-05-29T12:01:08;94150.19;;;24.46;91.40
12775;BME280;6451;42.630;23.382;2023-05-29T12:03:39;94157.66;;;24.74;91.16
12775;BME280;6451;42.630;23.382;2023-05-29T12:06:08;94160.75;;;24.51;95.21
12775;BME280;6451;42.630;23.382;2023-05-29T12:08:43;94159.84;;;24.41;91.46
12775;BME280;6451;42.630;23.382;2023-05-29T12:11:10;94159.75;;;24.28;93.31
12775;BME280;6451;42.630;23.382;2023-05-29T12:13:36;94169.94;;;24.48;94.63
12775;BME280;6451;42.630;23.382;2023-05-29T12:16:05;94172.13;;;24.82;92.90
12775;BME280;6451;42.630;23.382;2023-05-29T12:18:33;94166.34;;;24.89;88.90
12775;BME280;6451;42.630;23.382;2023-05-29T12:21:01;94158.63;;;25.09;86.50
12775;BME280;6451;42.630;23.382;2023-05-29T12:23:29;94162.91;;;24.85;85.82
12775;BME280;6451;42.630;23.382;2023-05-29T12:25:58;94162.34;;;24.90;85.21
12775;BME280;6451;42.630;23.382;2023-05-29T12:28:25;94158.84;;;25.15;83.95
12775;BME280;6451;42.630;23.382;2023-05-29T12:30:58;94150.06;;;25.42;85.15
12775;BME280;6451;42.630;23.382;2023-05-29T12:33:29;94156.31;;;25.08;85.91
12775;BME280;6451;42.630;23.382;2023-05-29T12:36:01;94144.63;;;25.38;84.84
12775;BME280;6451;42.630;23.382;2023-05-29T12:38:28;94156.75;;;25.32;86.45
12775;BME280;6451;42.630;23.382;2023-05-29T12:40:56;94157.50;;;25.32;84.71
12775;BME280;6451;42.630;23.382;2023-05-29T12:43:24;94149.28;;;25.41;82.05
12775;BME280;6451;42.630;23.382;2023-05-29T12:45:54;94160.38;;;25.29;81.89
12775;BME280;6451;42.630;23.382;2023-05-29T12:48:26;94093.38;;;24.50;83.46
12775;BME280;6451;42.630;23.382;2023-05-29T12:50:53;94140.72;;;24.01;87.60
12775;BME280;6451;42.630;23.382;2023-05-29T12:53:20;94161.97;;;23.26;92.61
12775;BME280;6451;42.630;23.382;2023-05-29T12:55:47;94159.13;;;22.78;98.54
12775;BME280;6451;42.630;23.382;2023-05-29T12:58:15;94166.13;;;22.03;100.00
12775;BME280;6451;42.630;23.382;2023-05-29T13:00:44;94156.63;;;21.37;100.00
12775;BME280;6451;42.630;23.382;2023-05-29T13:03:11;94151.81;;;21.18;100.00